Cosco Melbourne — V7IF5 — position and weather

sailwx.info

Track history (hours):
 
Tides and Currents Weather Stations Pressure Air Temp Water Temp Dewpoint Dewpoint Depression Visibility Wind Speed Wind Dir Waves Ship Positions

Cosco Melbourne

Last reported at 2017-May-25 16:22 UTC. Time now 2017-May-27 21:12 UTC.
Position S 06°41' E 112°37'.

Type: Ship (hazmat cat A). MMSI: 538002366.

Date/timePositionNaut miles runAvg speedWind from/ knotsBaromVisibWave heightAir tempDewpointWater temp
2017-May-25 16:22S 06°41' E 112°37'615.1
2017-May-25 15:59S 06°44' E 112°42'613.1
2017-May-25 15:30S 06°50' E 112°45'611.2
2017-May-25 15:00S 06°55' E 112°43'1414.4
2017-May-25 14:00S 07°09' E 112°40'3 4.8
2017-May-25 13:27S 07°11' E 112°41'0 0.0
2017-May-25 12:56S 07°11' E 112°41'0 0.0
2017-May-25 12:28S 07°11' E 112°41'0 0.0
2017-May-25 11:55S 07°11' E 112°41'0 0.0
2017-May-25 11:28S 07°11' E 112°41'0 0.0
2017-May-25 10:55S 07°11' E 112°41'0 0.0
2017-May-25 10:09S 07°11' E 112°41'0 0.0
2017-May-25 10:00S 07°11' E 112°41'0 0.0
2017-May-25 09:30S 07°11' E 112°41'0 0.0
2017-May-25 08:57S 07°11' E 112°41'0 0.0
2017-May-25 08:27S 07°11' E 112°41'0 0.0
2017-May-25 08:00S 07°11' E 112°41'0 0.0
2017-May-25 07:17S 07°11' E 112°41'  
2017-May-15 21:23N 30°39' E 123°17'716.9
2017-May-15 20:58N 30°46' E 123°15'1017.5
2017-May-15 20:25N 30°51' E 123°05'716.4
2017-May-15 20:00N 30°55' E 122°59'817.0
2017-May-15 19:30N 31°01' E 122°52'816.6
2017-May-15 19:00N 31°05' E 122°44'917.3
2017-May-15 18:30N 31°05' E 122°34'612.4
2017-May-15 18:00N 31°06' E 122°26'714.2
2017-May-15 17:29N 31°06' E 122°18'511.4
2017-May-15 17:00N 31°09' E 122°13'5 9.4
2017-May-15 16:30N 31°12' E 122°08'  
Track history (hours):
 
Tides and Currents Weather Stations Pressure Air Temp Water Temp Dewpoint Dewpoint Depression Visibility Wind Speed Wind Dir Waves Ship Positions

Cosco Melbourne

Last reported at 2017-May-25 16:22 UTC. Time now 2017-May-27 21:12 UTC.
Position S 06°41' E 112°37'.

Type: Ship (hazmat cat A). MMSI: 538002366.

Date/timePositionNaut miles runAvg speedWind from/ knotsBaromVisibWave heightAir tempDewpointWater temp
2017-May-25 16:22S 06°41' E 112°37'615.1
2017-May-25 15:59S 06°44' E 112°42'613.1
2017-May-25 15:30S 06°50' E 112°45'611.2
2017-May-25 15:00S 06°55' E 112°43'1414.4
2017-May-25 14:00S 07°09' E 112°40'3 4.8
2017-May-25 13:27S 07°11' E 112°41'0 0.0
2017-May-25 12:56S 07°11' E 112°41'0 0.0
2017-May-25 12:28S 07°11' E 112°41'0 0.0
2017-May-25 11:55S 07°11' E 112°41'0 0.0
2017-May-25 11:28S 07°11' E 112°41'0 0.0
2017-May-25 10:55S 07°11' E 112°41'0 0.0
2017-May-25 10:09S 07°11' E 112°41'0 0.0
2017-May-25 10:00S 07°11' E 112°41'0 0.0
2017-May-25 09:30S 07°11' E 112°41'0 0.0
2017-May-25 08:57S 07°11' E 112°41'0 0.0
2017-May-25 08:27S 07°11' E 112°41'0 0.0
2017-May-25 08:00S 07°11' E 112°41'0 0.0
2017-May-25 07:17S 07°11' E 112°41'  
2017-May-15 21:23N 30°39' E 123°17'716.9
2017-May-15 20:58N 30°46' E 123°15'1017.5
2017-May-15 20:25N 30°51' E 123°05'716.4
2017-May-15 20:00N 30°55' E 122°59'817.0
2017-May-15 19:30N 31°01' E 122°52'816.6
2017-May-15 19:00N 31°05' E 122°44'917.3
2017-May-15 18:30N 31°05' E 122°34'612.4
2017-May-15 18:00N 31°06' E 122°26'714.2
2017-May-15 17:29N 31°06' E 122°18'511.4
2017-May-15 17:00N 31°09' E 122°13'5 9.4
2017-May-15 16:30N 31°12' E 122°08'  

Dump ship's entire track history